sensor_id;sensor_type;location;lat;lon;timestamp;P1;durP1;ratioP1;P2;durP2;ratioP2
61806;SDS011;47726;52.766;6.606;2023-01-01T00:00:45;22.48;;;12.25;;
61806;SDS011;47726;52.766;6.606;2023-01-01T00:03:11;23.55;;;13.85;;
61806;SDS011;47726;52.766;6.606;2023-01-01T00:05:37;21.67;;;12.48;;
61806;SDS011;47726;52.766;6.606;2023-01-01T00:08:03;23.67;;;14.52;;
61806;SDS011;47726;52.766;6.606;2023-01-01T00:10:28;21.38;;;13.88;;
61806;SDS011;47726;52.766;6.606;2023-01-01T00:12:57;25.00;;;14.77;;
61806;SDS011;47726;52.766;6.606;2023-01-01T00:15:24;23.88;;;14.43;;
61806;SDS011;47726;52.766;6.606;2023-01-01T00:17:51;24.15;;;15.40;;
61806;SDS011;47726;52.766;6.606;2023-01-01T00:20:17;23.80;;;15.18;;
61806;SDS011;47726;52.766;6.606;2023-01-01T00:22:43;23.88;;;14.18;;
61806;SDS011;47726;52.766;6.606;2023-01-01T00:25:09;24.25;;;14.35;;
61806;SDS011;47726;52.766;6.606;2023-01-01T00:27:41;23.77;;;15.38;;
61806;SDS011;47726;52.766;6.606;2023-01-01T00:30:07;23.35;;;14.80;;
61806;SDS011;47726;52.766;6.606;2023-01-01T00:32:34;22.70;;;15.05;;
61806;SDS011;47726;52.766;6.606;2023-01-01T00:34:59;29.27;;;16.88;;
61806;SDS011;47726;52.766;6.606;2023-01-01T00:37:26;25.65;;;14.13;;
61806;SDS011;47726;52.766;6.606;2023-01-01T00:39:52;23.02;;;14.15;;
61806;SDS011;47726;52.766;6.606;2023-01-01T00:42:18;23.20;;;13.55;;
61806;SDS011;47726;52.766;6.606;2023-01-01T00:44:43;20.98;;;12.80;;
61806;SDS011;47726;52.766;6.606;2023-01-01T00:47:09;20.85;;;12.27;;
61806;SDS011;47726;52.766;6.606;2023-01-01T00:49:34;21.80;;;12.25;;
61806;SDS011;47726;52.766;6.606;2023-01-01T00:52:00;17.05;;;11.27;;
61806;SDS011;47726;52.766;6.606;2023-01-01T00:54:26;18.45;;;11.52;;
61806;SDS011;47726;52.766;6.606;2023-01-01T00:56:51;21.60;;;12.75;;
61806;SDS011;47726;52.766;6.606;2023-01-01T00:59:17;21.52;;;11.63;;
61806;SDS011;47726;52.766;6.606;2023-01-01T01:01:42;17.63;;;10.90;;
61806;SDS011;47726;52.766;6.606;2023-01-01T01:04:08;22.63;;;12.38;;
61806;SDS011;47726;52.766;6.606;2023-01-01T01:06:34;21.20;;;12.70;;
61806;SDS011;47726;52.766;6.606;2023-01-01T01:09:00;20.52;;;11.82;;
61806;SDS011;47726;52.766;6.606;2023-01-01T01:11:25;21.85;;;12.02;;
61806;SDS011;47726;52.766;6.606;2023-01-01T01:13:52;20.60;;;12.57;;
61806;SDS011;47726;52.766;6.606;2023-01-01T01:16:21;22.10;;;12.73;;
61806;SDS011;47726;52.766;6.606;2023-01-01T01:18:49;20.75;;;12.85;;
61806;SDS011;47726;52.766;6.606;2023-01-01T01:21:16;20.08;;;12.27;;
61806;SDS011;47726;52.766;6.606;2023-01-01T01:23:44;23.42;;;13.05;;
61806;SDS011;47726;52.766;6.606;2023-01-01T01:26:14;23.05;;;12.77;;
61806;SDS011;47726;52.766;6.606;2023-01-01T01:28:43;22.73;;;12.82;;
61806;SDS011;47726;52.766;6.606;2023-01-01T01:31:10;20.63;;;13.15;;
61806;SDS011;47726;52.766;6.606;2023-01-01T01:33:36;20.42;;;12.70;;
61806;SDS011;47726;52.766;6.606;2023-01-01T01:36:02;23.73;;;13.65;;
61806;SDS011;47726;52.766;6.606;2023-01-01T01:38:28;21.70;;;13.55;;
61806;SDS011;47726;52.766;6.606;2023-01-01T01:40:54;24.58;;;13.77;;
61806;SDS011;47726;52.766;6.606;2023-01-01T01:43:21;24.35;;;13.77;;
61806;SDS011;47726;52.766;6.606;2023-01-01T01:45:49;21.73;;;13.88;;
61806;SDS011;47726;52.766;6.606;2023-01-01T01:48:19;27.17;;;14.35;;
61806;SDS011;47726;52.766;6.606;2023-01-01T01:50:47;19.48;;;13.43;;
61806;SDS011;47726;52.766;6.606;2023-01-01T01:53:15;23.33;;;14.32;;
61806;SDS011;47726;52.766;6.606;2023-01-01T01:55:50;23.20;;;14.55;;
61806;SDS011;47726;52.766;6.606;2023-01-01T01:58:27;22.23;;;15.27;;
61806;SDS011;47726;52.766;6.606;2023-01-01T02:00:55;22.70;;;14.88;;
61806;SDS011;47726;52.766;6.606;2023-01-01T02:03:21;25.77;;;15.88;;
61806;SDS011;47726;52.766;6.606;2023-01-01T02:05:54;22.23;;;15.23;;
61806;SDS011;47726;52.766;6.606;2023-01-01T02:08:20;21.50;;;15.13;;
61806;SDS011;47726;52.766;6.606;2023-01-01T02:10:47;25.60;;;15.55;;
61806;SDS011;47726;52.766;6.606;2023-01-01T02:13:12;28.38;;;16.17;;
61806;SDS011;47726;52.766;6.606;2023-01-01T02:15:41;26.75;;;15.38;;
61806;SDS011;47726;52.766;6.606;2023-01-01T02:18:25;23.83;;;15.80;;
61806;SDS011;47726;52.766;6.606;2023-01-01T02:21:04;25.88;;;15.65;;
61806;SDS011;47726;52.766;6.606;2023-01-01T02:32:02;22.80;;;13.60;;
61806;SDS011;47726;52.766;6.606;2023-01-01T02:35:31;22.50;;;13.45;;
61806;SDS011;47726;52.766;6.606;2023-01-01T02:40:47;23.67;;;13.60;;
61806;SDS011;47726;52.766;6.606;2023-01-01T02:43:15;23.35;;;13.15;;
61806;SDS011;47726;52.766;6.606;2023-01-01T02:45:41;22.20;;;12.88;;
61806;SDS011;47726;52.766;6.606;2023-01-01T02:48:34;24.63;;;12.48;;
61806;SDS011;47726;52.766;6.606;2023-01-01T02:51:28;21.00;;;11.38;;
61806;SDS011;47726;52.766;6.606;2023-01-01T03:05:19;22.35;;;8.15;;
61806;SDS011;47726;52.766;6.606;2023-01-01T03:08:04;15.40;;;8.23;;
61806;SDS011;47726;52.766;6.606;2023-01-01T03:10:46;19.60;;;7.30;;
61806;SDS011;47726;52.766;6.606;2023-01-01T03:16:21;13.32;;;6.65;;
61806;SDS011;47726;52.766;6.606;2023-01-01T03:21:58;15.38;;;6.40;;
61806;SDS011;47726;52.766;6.606;2023-01-01T03:24:43;11.98;;;5.85;;
61806;SDS011;47726;52.766;6.606;2023-01-01T03:27:26;12.13;;;5.45;;
61806;SDS011;47726;52.766;6.606;2023-01-01T03:29:55;11.30;;;4.70;;
61806;SDS011;47726;52.766;6.606;2023-01-01T03:32:30;12.18;;;4.80;;
61806;SDS011;47726;52.766;6.606;2023-01-01T03:35:44;11.60;;;4.50;;
61806;SDS011;47726;52.766;6.606;2023-01-01T03:38:29;13.02;;;4.25;;
61806;SDS011;47726;52.766;6.606;2023-01-01T03:41:02;10.30;;;4.07;;
61806;SDS011;47726;52.766;6.606;2023-01-01T03:43:38;9.98;;;4.15;;
61806;SDS011;47726;52.766;6.606;2023-01-01T03:46:28;12.55;;;3.85;;
61806;SDS011;47726;52.766;6.606;2023-01-01T03:48:57;10.25;;;4.05;;
61806;SDS011;47726;52.766;6.606;2023-01-01T03:51:26;11.48;;;4.43;;
61806;SDS011;47726;52.766;6.606;2023-01-01T03:53:53;13.15;;;4.05;;
61806;SDS011;47726;52.766;6.606;2023-01-01T03:56:32;9.88;;;3.83;;
61806;SDS011;47726;52.766;6.606;2023-01-01T04:02:07;11.02;;;3.80;;
61806;SDS011;47726;52.766;6.606;2023-01-01T04:04:35;11.20;;;3.42;;
61806;SDS011;47726;52.766;6.606;2023-01-01T04:07:01;12.93;;;3.90;;
61806;SDS011;47726;52.766;6.606;2023-01-01T04:09:30;9.82;;;3.80;;
61806;SDS011;47726;52.766;6.606;2023-01-01T04:11:58;11.65;;;3.72;;
61806;SDS011;47726;52.766;6.606;2023-01-01T04:16:55;9.73;;;3.60;;
61806;SDS011;47726;52.766;6.606;2023-01-01T04:19:22;12.65;;;3.90;;
61806;SDS011;47726;52.766;6.606;2023-01-01T04:21:47;12.68;;;3.67;;
61806;SDS011;47726;52.766;6.606;2023-01-01T04:24:13;6.72;;;3.20;;
61806;SDS011;47726;52.766;6.606;2023-01-01T04:26:39;10.80;;;3.70;;
61806;SDS011;47726;52.766;6.606;2023-01-01T04:29:05;9.57;;;3.53;;
61806;SDS011;47726;52.766;6.606;2023-01-01T04:31:31;9.25;;;3.47;;
61806;SDS011;47726;52.766;6.606;2023-01-01T04:33:58;10.68;;;3.72;;
61806;SDS011;47726;52.766;6.606;2023-01-01T04:36:24;10.90;;;3.65;;
61806;SDS011;47726;52.766;6.606;2023-01-01T04:38:49;7.80;;;3.08;;
61806;SDS011;47726;52.766;6.606;2023-01-01T04:41:15;9.70;;;3.22;;
61806;SDS011;47726;52.766;6.606;2023-01-01T04:43:40;12.15;;;3.33;;
61806;SDS011;47726;52.766;6.606;2023-01-01T04:46:06;10.60;;;3.28;;
61806;SDS011;47726;52.766;6.606;2023-01-01T04:48:33;7.78;;;3.08;;
61806;SDS011;47726;52.766;6.606;2023-01-01T04:51:00;12.20;;;3.67;;
61806;SDS011;47726;52.766;6.606;2023-01-01T04:53:28;10.85;;;3.33;;
61806;SDS011;47726;52.766;6.606;2023-01-01T04:56:01;9.60;;;3.20;;
61806;SDS011;47726;52.766;6.606;2023-01-01T04:58:31;10.25;;;2.90;;
61806;SDS011;47726;52.766;6.606;2023-01-01T05:00:57;8.27;;;2.75;;
61806;SDS011;47726;52.766;6.606;2023-01-01T05:03:23;11.23;;;3.15;;
61806;SDS011;47726;52.766;6.606;2023-01-01T05:06:02;14.45;;;3.08;;
61806;SDS011;47726;52.766;6.606;2023-01-01T05:08:28;7.35;;;3.00;;
61806;SDS011;47726;52.766;6.606;2023-01-01T05:11:11;11.98;;;3.00;;
61806;SDS011;47726;52.766;6.606;2023-01-01T05:13:40;6.65;;;2.70;;
61806;SDS011;47726;52.766;6.606;2023-01-01T05:16:08;8.68;;;3.08;;
61806;SDS011;47726;52.766;6.606;2023-01-01T05:18:35;6.43;;;2.50;;
61806;SDS011;47726;52.766;6.606;2023-01-01T05:21:06;7.47;;;2.70;;
61806;SDS011;47726;52.766;6.606;2023-01-01T05:23:33;9.00;;;2.70;;
61806;SDS011;47726;52.766;6.606;2023-01-01T05:25:59;7.07;;;2.60;;
61806;SDS011;47726;52.766;6.606;2023-01-01T05:28:32;9.65;;;2.90;;
61806;SDS011;47726;52.766;6.606;2023-01-01T05:30:57;9.68;;;2.83;;
61806;SDS011;47726;52.766;6.606;2023-01-01T05:33:23;7.07;;;2.47;;
61806;SDS011;47726;52.766;6.606;2023-01-01T05:35:52;6.25;;;2.40;;
61806;SDS011;47726;52.766;6.606;2023-01-01T05:38:18;8.00;;;2.10;;
61806;SDS011;47726;52.766;6.606;2023-01-01T05:40:44;3.17;;;1.80;;
61806;SDS011;47726;52.766;6.606;2023-01-01T05:43:10;6.60;;;2.00;;
61806;SDS011;47726;52.766;6.606;2023-01-01T05:45:35;6.38;;;2.00;;
61806;SDS011;47726;52.766;6.606;2023-01-01T05:48:01;6.43;;;2.30;;
61806;SDS011;47726;52.766;6.606;2023-01-01T05:50:28;3.42;;;1.90;;
61806;SDS011;47726;52.766;6.606;2023-01-01T05:52:53;4.25;;;2.10;;
61806;SDS011;47726;52.766;6.606;2023-01-01T05:55:19;9.93;;;2.03;;
61806;SDS011;47726;52.766;6.606;2023-01-01T05:57:44;5.55;;;1.75;;
61806;SDS011;47726;52.766;6.606;2023-01-01T06:00:10;4.50;;;1.88;;
61806;SDS011;47726;52.766;6.606;2023-01-01T06:02:36;5.22;;;1.95;;
61806;SDS011;47726;52.766;6.606;2023-01-01T06:05:02;5.22;;;2.00;;
61806;SDS011;47726;52.766;6.606;2023-01-01T06:07:27;7.97;;;2.28;;
61806;SDS011;47726;52.766;6.606;2023-01-01T06:09:53;6.35;;;1.85;;
61806;SDS011;47726;52.766;6.606;2023-01-01T06:12:18;6.30;;;2.33;;
61806;SDS011;47726;52.766;6.606;2023-01-01T06:14:44;4.97;;;2.00;;
61806;SDS011;47726;52.766;6.606;2023-01-01T06:17:10;7.63;;;2.10;;
61806;SDS011;47726;52.766;6.606;2023-01-01T06:19:35;6.95;;;2.08;;
61806;SDS011;47726;52.766;6.606;2023-01-01T06:22:01;5.10;;;2.10;;
61806;SDS011;47726;52.766;6.606;2023-01-01T06:24:26;4.55;;;1.90;;
61806;SDS011;47726;52.766;6.606;2023-01-01T06:26:52;6.40;;;2.10;;
61806;SDS011;47726;52.766;6.606;2023-01-01T06:29:17;5.90;;;2.30;;
61806;SDS011;47726;52.766;6.606;2023-01-01T06:31:43;7.43;;;2.20;;
61806;SDS011;47726;52.766;6.606;2023-01-01T06:34:08;7.13;;;2.10;;
61806;SDS011;47726;52.766;6.606;2023-01-01T06:36:35;8.02;;;2.30;;
61806;SDS011;47726;52.766;6.606;2023-01-01T06:39:01;6.32;;;2.30;;
61806;SDS011;47726;52.766;6.606;2023-01-01T06:41:27;7.63;;;2.15;;
61806;SDS011;47726;52.766;6.606;2023-01-01T06:43:55;7.72;;;2.35;;
61806;SDS011;47726;52.766;6.606;2023-01-01T06:48:49;7.47;;;2.42;;
61806;SDS011;47726;52.766;6.606;2023-01-01T06:51:22;8.73;;;2.30;;
61806;SDS011;47726;52.766;6.606;2023-01-01T06:53:49;9.80;;;2.83;;
61806;SDS011;47726;52.766;6.606;2023-01-01T06:56:15;7.80;;;2.30;;
61806;SDS011;47726;52.766;6.606;2023-01-01T06:58:41;8.43;;;2.33;;
61806;SDS011;47726;52.766;6.606;2023-01-01T07:01:08;7.75;;;2.42;;
61806;SDS011;47726;52.766;6.606;2023-01-01T07:03:36;8.73;;;2.40;;
61806;SDS011;47726;52.766;6.606;2023-01-01T07:06:03;10.52;;;2.38;;
61806;SDS011;47726;52.766;6.606;2023-01-01T07:08:29;10.23;;;2.53;;
61806;SDS011;47726;52.766;6.606;2023-01-01T07:10:55;6.13;;;2.60;;
61806;SDS011;47726;52.766;6.606;2023-01-01T07:13:25;11.48;;;2.28;;
61806;SDS011;47726;52.766;6.606;2023-01-01T07:15:51;6.72;;;2.33;;
61806;SDS011;47726;52.766;6.606;2023-01-01T07:18:20;10.18;;;2.40;;
61806;SDS011;47726;52.766;6.606;2023-01-01T07:20:50;8.52;;;2.50;;
61806;SDS011;47726;52.766;6.606;2023-01-01T07:23:21;9.68;;;2.40;;
61806;SDS011;47726;52.766;6.606;2023-01-01T07:25:48;8.05;;;2.25;;
61806;SDS011;47726;52.766;6.606;2023-01-01T07:28:14;8.00;;;2.25;;
61806;SDS011;47726;52.766;6.606;2023-01-01T07:30:39;7.90;;;2.20;;
61806;SDS011;47726;52.766;6.606;2023-01-01T07:33:05;9.25;;;2.40;;
61806;SDS011;47726;52.766;6.606;2023-01-01T07:35:36;6.88;;;2.30;;
61806;SDS011;47726;52.766;6.606;2023-01-01T07:38:02;11.40;;;3.15;;
61806;SDS011;47726;52.766;6.606;2023-01-01T07:40:27;6.47;;;2.30;;
61806;SDS011;47726;52.766;6.606;2023-01-01T07:42:53;7.40;;;2.47;;
61806;SDS011;47726;52.766;6.606;2023-01-01T07:45:18;6.65;;;2.17;;
61806;SDS011;47726;52.766;6.606;2023-01-01T07:47:46;8.82;;;2.47;;
61806;SDS011;47726;52.766;6.606;2023-01-01T07:50:15;8.55;;;2.40;;
61806;SDS011;47726;52.766;6.606;2023-01-01T07:52:42;9.15;;;2.38;;
61806;SDS011;47726;52.766;6.606;2023-01-01T07:55:10;9.93;;;2.47;;
61806;SDS011;47726;52.766;6.606;2023-01-01T07:57:38;8.20;;;2.42;;
61806;SDS011;47726;52.766;6.606;2023-01-01T08:00:04;10.73;;;2.35;;
61806;SDS011;47726;52.766;6.606;2023-01-01T08:02:30;12.77;;;2.78;;
61806;SDS011;47726;52.766;6.606;2023-01-01T08:04:56;8.93;;;2.20;;
61806;SDS011;47726;52.766;6.606;2023-01-01T08:07:22;8.93;;;2.20;;
61806;SDS011;47726;52.766;6.606;2023-01-01T08:09:48;11.35;;;2.40;;
61806;SDS011;47726;52.766;6.606;2023-01-01T08:12:13;12.95;;;2.60;;
61806;SDS011;47726;52.766;6.606;2023-01-01T08:14:39;8.50;;;2.47;;
61806;SDS011;47726;52.766;6.606;2023-01-01T08:17:04;11.02;;;2.60;;
61806;SDS011;47726;52.766;6.606;2023-01-01T08:19:30;10.35;;;2.33;;
61806;SDS011;47726;52.766;6.606;2023-01-01T08:21:55;8.45;;;2.58;;
61806;SDS011;47726;52.766;6.606;2023-01-01T08:24:21;8.38;;;2.70;;
61806;SDS011;47726;52.766;6.606;2023-01-01T08:26:47;10.38;;;3.00;;
61806;SDS011;47726;52.766;6.606;2023-01-01T08:29:14;10.88;;;2.42;;
61806;SDS011;47726;52.766;6.606;2023-01-01T08:31:41;8.57;;;2.50;;
61806;SDS011;47726;52.766;6.606;2023-01-01T08:34:07;12.43;;;2.95;;
61806;SDS011;47726;52.766;6.606;2023-01-01T08:36:32;12.05;;;2.65;;
61806;SDS011;47726;52.766;6.606;2023-01-01T08:38:59;11.57;;;2.92;;
61806;SDS011;47726;52.766;6.606;2023-01-01T08:41:24;11.98;;;2.80;;
61806;SDS011;47726;52.766;6.606;2023-01-01T08:43:50;10.48;;;2.50;;
61806;SDS011;47726;52.766;6.606;2023-01-01T08:46:16;10.23;;;2.72;;
61806;SDS011;47726;52.766;6.606;2023-01-01T08:48:41;8.02;;;2.38;;
61806;SDS011;47726;52.766;6.606;2023-01-01T08:51:08;11.38;;;2.60;;
61806;SDS011;47726;52.766;6.606;2023-01-01T08:53:34;12.82;;;2.78;;
61806;SDS011;47726;52.766;6.606;2023-01-01T08:56:01;11.23;;;2.78;;
61806;SDS011;47726;52.766;6.606;2023-01-01T08:58:31;13.03;;;2.50;;
61806;SDS011;47726;52.766;6.606;2023-01-01T09:00:59;8.27;;;2.40;;
61806;SDS011;47726;52.766;6.606;2023-01-01T09:03:25;18.80;;;2.78;;
61806;SDS011;47726;52.766;6.606;2023-01-01T09:05:51;12.77;;;2.60;;
61806;SDS011;47726;52.766;6.606;2023-01-01T09:08:17;10.93;;;2.50;;
61806;SDS011;47726;52.766;6.606;2023-01-01T09:10:43;10.63;;;2.78;;
61806;SDS011;47726;52.766;6.606;2023-01-01T09:13:12;9.73;;;2.47;;
61806;SDS011;47726;52.766;6.606;2023-01-01T09:15:39;10.00;;;2.90;;
61806;SDS011;47726;52.766;6.606;2023-01-01T09:18:07;13.73;;;2.70;;
61806;SDS011;47726;52.766;6.606;2023-01-01T09:20:33;15.13;;;3.05;;
61806;SDS011;47726;52.766;6.606;2023-01-01T09:22:59;13.95;;;2.53;;
61806;SDS011;47726;52.766;6.606;2023-01-01T09:25:24;11.95;;;2.88;;
61806;SDS011;47726;52.766;6.606;2023-01-01T09:27:55;14.65;;;3.15;;
61806;SDS011;47726;52.766;6.606;2023-01-01T09:30:24;12.75;;;2.88;;
61806;SDS011;47726;52.766;6.606;2023-01-01T09:32:50;10.68;;;2.70;;
61806;SDS011;47726;52.766;6.606;2023-01-01T09:35:16;11.50;;;2.38;;
61806;SDS011;47726;52.766;6.606;2023-01-01T09:37:42;11.27;;;2.38;;
61806;SDS011;47726;52.766;6.606;2023-01-01T09:40:08;12.05;;;2.80;;
61806;SDS011;47726;52.766;6.606;2023-01-01T09:42:49;11.80;;;2.17;;
61806;SDS011;47726;52.766;6.606;2023-01-01T09:45:24;13.27;;;3.08;;
61806;SDS011;47726;52.766;6.606;2023-01-01T09:47:58;9.38;;;2.30;;
61806;SDS011;47726;52.766;6.606;2023-01-01T09:50:40;13.63;;;2.90;;
61806;SDS011;47726;52.766;6.606;2023-01-01T09:53:16;10.73;;;2.45;;
61806;SDS011;47726;52.766;6.606;2023-01-01T09:55:52;11.48;;;2.45;;
61806;SDS011;47726;52.766;6.606;2023-01-01T09:58:29;10.05;;;2.42;;
61806;SDS011;47726;52.766;6.606;2023-01-01T10:01:21;11.35;;;2.58;;
61806;SDS011;47726;52.766;6.606;2023-01-01T10:07:19;9.13;;;2.40;;
61806;SDS011;47726;52.766;6.606;2023-01-01T10:12:47;9.70;;;2.67;;
61806;SDS011;47726;52.766;6.606;2023-01-01T10:15:34;12.57;;;2.88;;
61806;SDS011;47726;52.766;6.606;2023-01-01T10:18:05;10.57;;;2.40;;
61806;SDS011;47726;52.766;6.606;2023-01-01T10:20:41;12.77;;;2.80;;
61806;SDS011;47726;52.766;6.606;2023-01-01T10:25:49;13.30;;;2.28;;
61806;SDS011;47726;52.766;6.606;2023-01-01T10:28:18;9.40;;;2.20;;
61806;SDS011;47726;52.766;6.606;2023-01-01T10:31:16;9.00;;;2.40;;
61806;SDS011;47726;52.766;6.606;2023-01-01T10:33:53;15.47;;;2.73;;
61806;SDS011;47726;52.766;6.606;2023-01-01T10:36:19;11.82;;;2.60;;
61806;SDS011;47726;52.766;6.606;2023-01-01T10:38:46;13.52;;;2.60;;
61806;SDS011;47726;52.766;6.606;2023-01-01T10:41:12;12.63;;;2.30;;
61806;SDS011;47726;52.766;6.606;2023-01-01T10:43:39;8.43;;;2.30;;
61806;SDS011;47726;52.766;6.606;2023-01-01T10:46:04;14.75;;;2.67;;
61806;SDS011;47726;52.766;6.606;2023-01-01T10:48:31;10.20;;;2.20;;
61806;SDS011;47726;52.766;6.606;2023-01-01T10:53:31;10.30;;;2.53;;
61806;SDS011;47726;52.766;6.606;2023-01-01T11:00:59;12.48;;;2.67;;
61806;SDS011;47726;52.766;6.606;2023-01-01T11:03:27;10.35;;;2.40;;
61806;SDS011;47726;52.766;6.606;2023-01-01T11:08:40;14.18;;;2.50;;
61806;SDS011;47726;52.766;6.606;2023-01-01T11:11:19;9.18;;;2.60;;
61806;SDS011;47726;52.766;6.606;2023-01-01T11:13:48;11.73;;;2.70;;
61806;SDS011;47726;52.766;6.606;2023-01-01T11:16:15;14.02;;;3.03;;
61806;SDS011;47726;52.766;6.606;2023-01-01T11:18:41;16.63;;;2.83;;
61806;SDS011;47726;52.766;6.606;2023-01-01T11:21:07;14.80;;;3.13;;
61806;SDS011;47726;52.766;6.606;2023-01-01T11:23:34;12.88;;;2.70;;
61806;SDS011;47726;52.766;6.606;2023-01-01T11:26:04;13.63;;;2.60;;
61806;SDS011;47726;52.766;6.606;2023-01-01T11:28:36;13.15;;;2.67;;
61806;SDS011;47726;52.766;6.606;2023-01-01T11:31:16;11.27;;;2.60;;
61806;SDS011;47726;52.766;6.606;2023-01-01T11:33:50;9.18;;;2.60;;
61806;SDS011;47726;52.766;6.606;2023-01-01T11:36:35;12.07;;;2.85;;
61806;SDS011;47726;52.766;6.606;2023-01-01T11:39:15;13.30;;;2.53;;
61806;SDS011;47726;52.766;6.606;2023-01-01T11:41:49;12.50;;;2.75;;
61806;SDS011;47726;52.766;6.606;2023-01-01T11:44:32;11.15;;;2.30;;
61806;SDS011;47726;52.766;6.606;2023-01-01T11:47:04;12.13;;;2.60;;
61806;SDS011;47726;52.766;6.606;2023-01-01T11:49:31;11.80;;;3.10;;
61806;SDS011;47726;52.766;6.606;2023-01-01T11:51:58;14.73;;;4.00;;
61806;SDS011;47726;52.766;6.606;2023-01-01T11:54:28;13.93;;;4.05;;
61806;SDS011;47726;52.766;6.606;2023-01-01T11:59:38;11.52;;;3.00;;
61806;SDS011;47726;52.766;6.606;2023-01-01T12:02:33;14.45;;;3.47;;
61806;SDS011;47726;52.766;6.606;2023-01-01T12:05:08;10.40;;;3.38;;
61806;SDS011;47726;52.766;6.606;2023-01-01T12:07:37;11.18;;;3.10;;
61806;SDS011;47726;52.766;6.606;2023-01-01T12:10:23;10.60;;;2.78;;
61806;SDS011;47726;52.766;6.606;2023-01-01T12:13:02;9.98;;;2.70;;
61806;SDS011;47726;52.766;6.606;2023-01-01T12:15:39;11.23;;;2.60;;
61806;SDS011;47726;52.766;6.606;2023-01-01T12:21:13;10.25;;;2.50;;
61806;SDS011;47726;52.766;6.606;2023-01-01T12:23:42;10.85;;;2.63;;
61806;SDS011;47726;52.766;6.606;2023-01-01T12:26:11;13.52;;;4.75;;
61806;SDS011;47726;52.766;6.606;2023-01-01T12:31:25;11.30;;;3.10;;
61806;SDS011;47726;52.766;6.606;2023-01-01T12:34:17;11.52;;;2.80;;
61806;SDS011;47726;52.766;6.606;2023-01-01T12:37:38;14.90;;;2.83;;
61806;SDS011;47726;52.766;6.606;2023-01-01T12:43:10;8.60;;;2.83;;
61806;SDS011;47726;52.766;6.606;2023-01-01T12:45:50;10.27;;;2.70;;
61806;SDS011;47726;52.766;6.606;2023-01-01T12:48:36;12.05;;;3.00;;
61806;SDS011;47726;52.766;6.606;2023-01-01T12:51:34;11.30;;;2.63;;
61806;SDS011;47726;52.766;6.606;2023-01-01T12:57:05;12.52;;;3.22;;
61806;SDS011;47726;52.766;6.606;2023-01-01T12:59:39;8.68;;;2.55;;
61806;SDS011;47726;52.766;6.606;2023-01-01T13:02:18;14.02;;;2.90;;
61806;SDS011;47726;52.766;6.606;2023-01-01T13:04:46;13.40;;;3.28;;
61806;SDS011;47726;52.766;6.606;2023-01-01T13:07:15;13.30;;;4.10;;
61806;SDS011;47726;52.766;6.606;2023-01-01T13:09:54;13.02;;;3.45;;
61806;SDS011;47726;52.766;6.606;2023-01-01T13:12:22;13.38;;;2.95;;
61806;SDS011;47726;52.766;6.606;2023-01-01T13:14:49;14.55;;;5.05;;
61806;SDS011;47726;52.766;6.606;2023-01-01T13:17:19;13.40;;;4.05;;
61806;SDS011;47726;52.766;6.606;2023-01-01T13:19:56;17.48;;;4.40;;
61806;SDS011;47726;52.766;6.606;2023-01-01T13:25:14;19.95;;;3.88;;
61806;SDS011;47726;52.766;6.606;2023-01-01T13:38:44;14.25;;;3.58;;
61806;SDS011;47726;52.766;6.606;2023-01-01T13:46:33;12.07;;;3.22;;
61806;SDS011;47726;52.766;6.606;2023-01-01T14:01:00;13.43;;;3.38;;
61806;SDS011;47726;52.766;6.606;2023-01-01T14:03:43;12.35;;;3.20;;
61806;SDS011;47726;52.766;6.606;2023-01-01T14:06:38;17.52;;;3.72;;
61806;SDS011;47726;52.766;6.606;2023-01-01T14:11:33;15.73;;;4.10;;
61806;SDS011;47726;52.766;6.606;2023-01-01T14:13:59;12.88;;;3.13;;
61806;SDS011;47726;52.766;6.606;2023-01-01T14:16:24;13.27;;;3.40;;
61806;SDS011;47726;52.766;6.606;2023-01-01T14:18:52;12.43;;;3.33;;
61806;SDS011;47726;52.766;6.606;2023-01-01T14:21:25;15.55;;;3.92;;
61806;SDS011;47726;52.766;6.606;2023-01-01T14:23:56;16.73;;;4.20;;
61806;SDS011;47726;52.766;6.606;2023-01-01T14:26:24;13.77;;;3.72;;
61806;SDS011;47726;52.766;6.606;2023-01-01T14:28:54;11.85;;;3.90;;
61806;SDS011;47726;52.766;6.606;2023-01-01T14:31:22;16.20;;;4.40;;
61806;SDS011;47726;52.766;6.606;2023-01-01T14:33:51;15.13;;;4.00;;
61806;SDS011;47726;52.766;6.606;2023-01-01T14:36:27;12.13;;;3.60;;
61806;SDS011;47726;52.766;6.606;2023-01-01T14:38:56;14.95;;;4.05;;
61806;SDS011;47726;52.766;6.606;2023-01-01T14:41:28;14.07;;;3.90;;
61806;SDS011;47726;52.766;6.606;2023-01-01T14:44:06;12.13;;;3.33;;
61806;SDS011;47726;52.766;6.606;2023-01-01T14:46:40;14.25;;;3.60;;
61806;SDS011;47726;52.766;6.606;2023-01-01T14:49:17;9.65;;;3.17;;
61806;SDS011;47726;52.766;6.606;2023-01-01T14:52:02;12.20;;;3.50;;
61806;SDS011;47726;52.766;6.606;2023-01-01T14:54:38;17.15;;;4.15;;
61806;SDS011;47726;52.766;6.606;2023-01-01T14:57:08;16.77;;;3.67;;
61806;SDS011;47726;52.766;6.606;2023-01-01T14:59:42;13.23;;;3.35;;
61806;SDS011;47726;52.766;6.606;2023-01-01T15:02:19;13.25;;;3.58;;
61806;SDS011;47726;52.766;6.606;2023-01-01T15:04:57;12.25;;;3.53;;
61806;SDS011;47726;52.766;6.606;2023-01-01T15:07:27;13.88;;;3.75;;
61806;SDS011;47726;52.766;6.606;2023-01-01T15:09:55;14.43;;;3.33;;
61806;SDS011;47726;52.766;6.606;2023-01-01T15:12:26;13.20;;;3.28;;
61806;SDS011;47726;52.766;6.606;2023-01-01T15:14:53;13.20;;;3.70;;
61806;SDS011;47726;52.766;6.606;2023-01-01T15:17:21;14.15;;;3.40;;
61806;SDS011;47726;52.766;6.606;2023-01-01T15:20:03;15.98;;;3.40;;
61806;SDS011;47726;52.766;6.606;2023-01-01T15:22:34;16.15;;;3.63;;
61806;SDS011;47726;52.766;6.606;2023-01-01T15:25:03;13.77;;;3.10;;
61806;SDS011;47726;52.766;6.606;2023-01-01T15:27:29;18.25;;;5.97;;
61806;SDS011;47726;52.766;6.606;2023-01-01T15:29:57;29.73;;;15.30;;
61806;SDS011;47726;52.766;6.606;2023-01-01T15:32:34;34.15;;;21.35;;
61806;SDS011;47726;52.766;6.606;2023-01-01T15:35:03;22.95;;;13.75;;
61806;SDS011;47726;52.766;6.606;2023-01-01T15:37:40;22.05;;;13.18;;
61806;SDS011;47726;52.766;6.606;2023-01-01T15:42:42;22.92;;;9.30;;
61806;SDS011;47726;52.766;6.606;2023-01-01T15:47:52;19.73;;;9.02;;
61806;SDS011;47726;52.766;6.606;2023-01-01T15:50:26;24.45;;;9.68;;
61806;SDS011;47726;52.766;6.606;2023-01-01T15:52:58;21.98;;;7.78;;
61806;SDS011;47726;52.766;6.606;2023-01-01T15:55:28;24.65;;;7.65;;
61806;SDS011;47726;52.766;6.606;2023-01-01T15:57:57;19.80;;;7.97;;
61806;SDS011;47726;52.766;6.606;2023-01-01T16:00:27;20.52;;;7.78;;
61806;SDS011;47726;52.766;6.606;2023-01-01T16:03:14;21.15;;;10.02;;
61806;SDS011;47726;52.766;6.606;2023-01-01T16:05:48;16.92;;;9.57;;
61806;SDS011;47726;52.766;6.606;2023-01-01T16:08:15;18.80;;;8.15;;
61806;SDS011;47726;52.766;6.606;2023-01-01T16:10:41;17.75;;;7.55;;
61806;SDS011;47726;52.766;6.606;2023-01-01T16:13:07;21.50;;;7.07;;
61806;SDS011;47726;52.766;6.606;2023-01-01T16:15:33;16.60;;;6.57;;
61806;SDS011;47726;52.766;6.606;2023-01-01T16:18:00;19.02;;;6.90;;
61806;SDS011;47726;52.766;6.606;2023-01-01T16:20:26;16.23;;;5.55;;
61806;SDS011;47726;52.766;6.606;2023-01-01T16:22:51;15.82;;;5.28;;
61806;SDS011;47726;52.766;6.606;2023-01-01T16:25:18;16.58;;;5.78;;
61806;SDS011;47726;52.766;6.606;2023-01-01T16:27:45;18.67;;;6.10;;
61806;SDS011;47726;52.766;6.606;2023-01-01T16:30:12;11.13;;;4.50;;
61806;SDS011;47726;52.766;6.606;2023-01-01T16:32:38;14.68;;;4.72;;
61806;SDS011;47726;52.766;6.606;2023-01-01T16:35:05;14.60;;;4.93;;
61806;SDS011;47726;52.766;6.606;2023-01-01T16:37:35;15.13;;;4.47;;
61806;SDS011;47726;52.766;6.606;2023-01-01T16:40:01;13.63;;;5.40;;
61806;SDS011;47726;52.766;6.606;2023-01-01T16:42:26;11.77;;;4.20;;